Terminal Aerodrome Forecast
Issued by NWS Wilmington, NC

Home | Current Version | Previous Version | Text Only | Print | Product List | Glossary On
Versions: 1 2 3 4 5 6 7 8 9 10 11 12 13 14 15 16 17 18 19
000
FTUS42 KILM 170521
TAFLBT
TAF
KLBT 170521Z 1706/1806 04002KT P6SM OVC009
     FM170800 08003KT 2SM BR OVC005
     FM171700 24005KT P6SM SCT005 BKN015
     FM171900 24010KT P6SM FEW007 SCT250
     FM180200 21005KT P6SM BKN250=

USA.gov is the U.S. government's official web portal to all federal, state and local government web resources and services.